Wilmington, Delaware
Current Conditions -  °F | °C
As of 9:51 PM on Saturday 22 Nov 2014 (Local Time) from KILG Reporting Station
Broken Clouds Broken Clouds  
Wind Chill:   Ceiling: 12000
Heat Index:   Visibility: 10mi
Dew Point: -6°   Wind: 5mph
Humidity: 47%   Direction: 190°S
Pressure: 30.27"   Gusts: NA
Location:  39.74°N, 75.55°W
Report Text: KILG 230251Z 19004KT 10SM BKN120 05/M06 A3027 RMK AO2 SLP250 T00501056 58013
Loading
Personal Weather Stations






























Interactive Weather Map New forecast layout! Learn more

10-Day Weather Forecast

Advertisements
Track Severe Weather on mobile